Time;durP1;ratioP1;P1;durP2;ratioP2;P2;SDS_P1;SDS_P2;PMS_P1;PMS_P2;Temp;Humidity;BMP_temperature;BMP_pressure;BME280_temperature;BME280_humidity;BME280_pressure;Samples;Min_cycle;Max_cycle;Signal;HPM_P1;HPM_P2
2023/04/21 00:01:17;;;;;;;31.10;18.53;;;;;;;;;;5020187;28;20557;-44
2023/04/21 00:03:43;;;;;;;34.27;19.67;;;;;;;;;;5015234;28;20414;-44
2023/04/21 00:06:09;;;;;;;38.57;21.77;;;;;;;;;;5018318;28;20496;-45
2023/04/21 00:08:39;;;;;;;32.30;19.37;;;;;;;;;;5018672;28;20500;-44
2023/04/21 00:11:06;;;;;;;34.40;20.03;;;;;;;;;;5012245;28;20905;-45
2023/04/21 00:13:33;;;;;;;44.10;24.23;;;;;;;;;;5017288;28;20921;-44
2023/04/21 00:15:59;;;;;;;37.33;22.10;;;;;;;;;;5022960;28;20559;-44
2023/04/21 00:18:26;;;;;;;33.60;20.00;;;;;;;;;;5017269;28;20417;-44
2023/04/21 00:20:52;;;;;;;45.43;22.80;;;;;;;;;;5011799;28;20469;-44
2023/04/21 00:23:18;;;;;;;34.60;19.60;;;;;;;;;;5014699;28;20502;-44
2023/04/21 00:25:44;;;;;;;38.33;19.93;;;;;;;;;;5017324;28;20406;-44
2023/04/21 00:28:10;;;;;;;38.50;22.73;;;;;;;;;;5022771;28;20500;-46
2023/04/21 00:30:36;;;;;;;33.57;20.20;;;;;;;;;;5019129;28;20525;-44
2023/04/21 00:33:02;;;;;;;34.53;19.67;;;;;;;;;;5020268;28;20475;-44
2023/04/21 00:35:28;;;;;;;35.53;20.50;;;;;;;;;;5015583;28;20417;-46
2023/04/21 00:37:54;;;;;;;36.77;22.20;;;;;;;;;;5007201;28;20533;-45
2023/04/21 00:40:20;;;;;;;30.97;17.30;;;;;;;;;;5013166;28;21038;-43
2023/04/21 00:42:46;;;;;;;35.87;19.93;;;;;;;;;;5016247;28;20426;-43
2023/04/21 00:45:14;;;;;;;33.87;20.33;;;;;;;;;;5022562;28;20986;-44
2023/04/21 00:47:40;;;;;;;35.27;21.07;;;;;;;;;;5016479;28;20406;-45
2023/04/21 00:50:06;;;;;;;35.17;19.57;;;;;;;;;;5016680;28;20433;-44
2023/04/21 00:52:33;;;;;;;35.43;19.87;;;;;;;;;;5024929;28;20444;-44
2023/04/21 00:54:59;;;;;;;38.37;22.63;;;;;;;;;;5019306;28;20516;-45
2023/04/21 00:57:25;;;;;;;49.50;30.77;;;;;;;;;;5019748;28;20405;-44
2023/04/21 00:59:51;;;;;;;58.17;32.90;;;;;;;;;;5018931;28;20509;-44
2023/04/21 01:02:18;;;;;;;43.30;24.97;;;;;;;;;;5014841;28;20560;-44
2023/04/21 01:04:44;;;;;;;41.00;22.90;;;;;;;;;;5013783;28;20416;-44
2023/04/21 01:07:10;;;;;;;38.77;22.60;;;;;;;;;;5016997;28;20435;-44
2023/04/21 01:09:36;;;;;;;38.63;20.60;;;;;;;;;;5020877;28;20437;-43
2023/04/21 01:12:02;;;;;;;38.63;21.17;;;;;;;;;;5015953;28;20931;-44
2023/04/21 01:14:28;;;;;;;36.10;21.37;;;;;;;;;;5015281;28;20411;-45
2023/04/21 01:16:56;;;;;;;36.03;20.10;;;;;;;;;;5018629;28;20897;-44
2023/04/21 01:19:23;;;;;;;46.00;21.87;;;;;;;;;;5013592;28;20488;-45
2023/04/21 01:21:52;;;;;;;33.13;19.70;;;;;;;;;;5019956;28;20469;-44
2023/04/21 01:24:18;;;;;;;41.20;22.43;;;;;;;;;;5022208;28;20448;-46
2023/04/21 01:26:48;;;;;;;43.03;21.97;;;;;;;;;;5020698;28;20455;-46
2023/04/21 01:29:14;;;;;;;39.57;22.70;;;;;;;;;;5016149;28;20924;-44
2023/04/21 01:31:40;;;;;;;35.10;20.70;;;;;;;;;;5013244;28;20469;-44
2023/04/21 01:34:06;;;;;;;35.73;22.10;;;;;;;;;;5026473;28;20412;-44
2023/04/21 01:36:33;;;;;;;37.60;22.43;;;;;;;;;;5024430;28;20872;-44
2023/04/21 01:38:59;;;;;;;41.10;21.17;;;;;;;;;;5022824;28;20792;-43
2023/04/21 01:41:25;;;;;;;44.30;23.80;;;;;;;;;;5024597;28;20468;-44
2023/04/21 01:43:51;;;;;;;40.93;22.10;;;;;;;;;;5020854;28;20826;-44
2023/04/21 01:46:19;;;;;;;35.30;20.40;;;;;;;;;;5015089;28;20405;-44
2023/04/21 01:48:45;;;;;;;39.13;20.80;;;;;;;;;;5025019;28;20423;-44
2023/04/21 01:51:11;;;;;;;39.67;23.30;;;;;;;;;;5023704;28;20474;-43
2023/04/21 01:53:37;;;;;;;40.20;22.30;;;;;;;;;;5020182;28;20453;-44
2023/04/21 01:56:03;;;;;;;42.50;22.60;;;;;;;;;;5029359;28;20412;-45
2023/04/21 01:58:29;;;;;;;49.13;24.87;;;;;;;;;;5017296;28;20415;-44
2023/04/21 02:00:55;;;;;;;40.50;22.43;;;;;;;;;;5017584;28;20456;-43
2023/04/21 02:03:21;;;;;;;40.53;21.47;;;;;;;;;;5012064;28;20444;-46
2023/04/21 02:05:47;;;;;;;48.40;23.90;;;;;;;;;;5022767;28;20410;-46
2023/04/21 02:08:13;;;;;;;42.93;23.60;;;;;;;;;;5017931;28;20421;-44
2023/04/21 02:10:39;;;;;;;40.83;21.90;;;;;;;;;;5016087;28;20417;-45
2023/04/21 02:13:05;;;;;;;36.17;22.33;;;;;;;;;;5021822;28;20404;-44
2023/04/21 02:15:32;;;;;;;44.93;22.33;;;;;;;;;;5018091;28;20401;-44
2023/04/21 02:17:58;;;;;;;46.70;25.57;;;;;;;;;;5014095;28;20415;-44
2023/04/21 02:20:25;;;;;;;44.53;23.13;;;;;;;;;;5020032;28;20506;-44
2023/04/21 02:22:51;;;;;;;43.83;23.40;;;;;;;;;;5025710;28;20482;-45
2023/04/21 02:25:17;;;;;;;37.87;21.37;;;;;;;;;;5017733;28;20412;-45
2023/04/21 02:27:43;;;;;;;44.00;23.67;;;;;;;;;;5012408;28;20411;-44
2023/04/21 02:30:10;;;;;;;42.10;22.23;;;;;;;;;;5017194;28;20433;-45
2023/04/21 02:32:36;;;;;;;43.67;22.17;;;;;;;;;;5017108;28;20404;-44
2023/04/21 02:35:02;;;;;;;41.13;21.07;;;;;;;;;;5024601;28;20433;-44
2023/04/21 02:37:28;;;;;;;43.13;21.37;;;;;;;;;;5020554;28;20453;-45
2023/04/21 02:39:54;;;;;;;44.13;24.60;;;;;;;;;;5019083;28;20436;-46
2023/04/21 02:42:20;;;;;;;43.47;24.70;;;;;;;;;;5008141;28;20469;-44
2023/04/21 02:44:46;;;;;;;45.67;24.60;;;;;;;;;;5014840;28;20418;-44
2023/04/21 02:47:14;;;;;;;47.20;26.80;;;;;;;;;;5024518;28;20477;-44
2023/04/21 02:49:43;;;;;;;41.63;23.60;;;;;;;;;;5018737;28;20426;-44
2023/04/21 02:52:09;;;;;;;46.93;22.57;;;;;;;;;;5008941;28;20433;-44
2023/04/21 02:54:35;;;;;;;40.83;22.40;;;;;;;;;;5017110;28;20923;-45
2023/04/21 02:57:01;;;;;;;42.77;22.87;;;;;;;;;;5015548;28;20420;-44
2023/04/21 02:59:27;;;;;;;46.43;23.90;;;;;;;;;;5011802;28;20447;-44
2023/04/21 03:01:53;;;;;;;42.77;24.07;;;;;;;;;;5021444;28;20472;-44
2023/04/21 03:04:19;;;;;;;40.17;23.53;;;;;;;;;;5020553;28;20409;-45
2023/04/21 03:06:44;;;;;;;46.50;23.80;;;;;;;;;;5012686;28;20917;-45
2023/04/21 03:09:11;;;;;;;45.60;23.87;;;;;;;;;;5021305;28;20463;-45
2023/04/21 03:11:36;;;;;;;43.77;24.50;;;;;;;;;;5017429;28;20900;-44
2023/04/21 03:14:02;;;;;;;45.30;25.30;;;;;;;;;;5013663;28;20470;-46
2023/04/21 03:16:28;;;;;;;45.90;25.73;;;;;;;;;;5019776;28;20421;-44
2023/04/21 03:18:54;;;;;;;48.87;25.30;;;;;;;;;;5018823;28;20446;-44
2023/04/21 03:21:21;;;;;;;42.93;24.77;;;;;;;;;;5019690;28;20947;-44
2023/04/21 03:23:47;;;;;;;49.03;23.57;;;;;;;;;;5011951;28;20755;-44
2023/04/21 03:26:13;;;;;;;48.10;25.53;;;;;;;;;;5015441;28;20429;-45
2023/04/21 03:28:39;;;;;;;49.33;24.10;;;;;;;;;;5016083;28;20444;-45
2023/04/21 03:31:05;;;;;;;47.57;23.90;;;;;;;;;;5024348;28;20492;-44
2023/04/21 03:33:31;;;;;;;41.60;24.10;;;;;;;;;;5019112;28;20416;-44
2023/04/21 03:35:57;;;;;;;44.50;24.77;;;;;;;;;;5022596;28;20436;-44
2023/04/21 03:38:23;;;;;;;39.40;23.00;;;;;;;;;;5014085;28;20510;-44
2023/04/21 03:40:49;;;;;;;48.00;27.63;;;;;;;;;;5007910;28;20463;-44
2023/04/21 03:43:15;;;;;;;43.93;23.67;;;;;;;;;;5022869;28;20417;-44
2023/04/21 03:45:41;;;;;;;43.00;24.07;;;;;;;;;;5018262;28;20489;-45
2023/04/21 03:48:07;;;;;;;55.70;31.30;;;;;;;;;;5022998;28;20407;-45
2023/04/21 03:50:33;;;;;;;43.53;22.80;;;;;;;;;;5016117;28;20457;-44
2023/04/21 03:52:59;;;;;;;44.30;24.20;;;;;;;;;;5016420;28;20479;-44
2023/04/21 03:55:25;;;;;;;47.00;25.00;;;;;;;;;;5012643;28;20764;-43
2023/04/21 03:57:51;;;;;;;56.43;26.83;;;;;;;;;;5020639;28;20798;-44
2023/04/21 04:00:17;;;;;;;45.00;23.17;;;;;;;;;;5022344;28;20426;-44
2023/04/21 04:02:43;;;;;;;49.30;25.40;;;;;;;;;;5014495;28;20451;-45
2023/04/21 04:05:09;;;;;;;51.23;25.50;;;;;;;;;;5016893;28;20487;-43
2023/04/21 04:07:35;;;;;;;50.70;26.30;;;;;;;;;;5022183;28;20926;-45
2023/04/21 04:10:01;;;;;;;64.87;35.13;;;;;;;;;;5012654;28;20420;-45
2023/04/21 04:12:27;;;;;;;40.00;24.53;;;;;;;;;;5018721;28;20472;-45
2023/04/21 04:14:53;;;;;;;41.87;24.70;;;;;;;;;;5022989;28;20937;-45
2023/04/21 04:17:19;;;;;;;46.00;23.53;;;;;;;;;;5016595;28;20909;-44
2023/04/21 04:19:45;;;;;;;49.50;25.17;;;;;;;;;;5010680;28;21027;-44
2023/04/21 04:22:11;;;;;;;46.37;23.73;;;;;;;;;;5015535;28;20547;-44
2023/04/21 04:24:37;;;;;;;45.00;24.37;;;;;;;;;;5015523;28;20437;-44
2023/04/21 04:27:04;;;;;;;46.87;25.73;;;;;;;;;;5022694;28;20402;-44
2023/04/21 04:29:30;;;;;;;41.17;23.00;;;;;;;;;;5018806;28;20438;-45
2023/04/21 04:31:57;;;;;;;48.70;24.37;;;;;;;;;;5019355;28;20425;-44
2023/04/21 04:34:23;;;;;;;48.33;27.60;;;;;;;;;;5011210;28;20461;-44
2023/04/21 04:36:50;;;;;;;50.03;24.90;;;;;;;;;;5011929;28;20796;-44
2023/04/21 04:39:16;;;;;;;41.83;23.50;;;;;;;;;;5021907;28;20482;-45
2023/04/21 04:41:42;;;;;;;41.43;24.67;;;;;;;;;;5017134;28;20903;-44
2023/04/21 04:44:08;;;;;;;49.43;26.37;;;;;;;;;;5023111;28;20432;-44
2023/04/21 04:46:34;;;;;;;50.90;26.40;;;;;;;;;;5018488;28;20405;-45
2023/04/21 04:49:01;;;;;;;44.10;24.73;;;;;;;;;;5015408;28;20523;-45
2023/04/21 04:51:27;;;;;;;49.50;25.77;;;;;;;;;;5011159;28;20412;-44
2023/04/21 04:53:53;;;;;;;41.80;24.57;;;;;;;;;;5020043;28;20486;-45
2023/04/21 04:56:19;;;;;;;50.07;25.60;;;;;;;;;;5019129;28;20462;-44
2023/04/21 04:58:47;;;;;;;46.63;25.37;;;;;;;;;;5014262;28;20426;-45
2023/04/21 05:01:16;;;;;;;50.27;27.50;;;;;;;;;;5018118;28;20457;-44
2023/04/21 05:03:42;;;;;;;49.03;26.37;;;;;;;;;;5018526;28;20466;-44
2023/04/21 05:06:08;;;;;;;51.67;27.50;;;;;;;;;;5012885;28;20470;-44
2023/04/21 05:08:35;;;;;;;53.60;28.47;;;;;;;;;;5032447;28;20451;-43
2023/04/21 05:11:01;;;;;;;46.97;25.53;;;;;;;;;;5021082;28;20449;-45
2023/04/21 05:13:26;;;;;;;46.73;26.40;;;;;;;;;;5021716;28;20456;-44
2023/04/21 05:16:00;;;;;;;49.43;26.30;;;;;;;;;;5015233;28;20414;-44
2023/04/21 05:18:27;;;;;;;48.97;26.77;;;;;;;;;;5052507;22;20485;-48
2023/04/21 05:20:52;;;;;;;42.67;24.23;;;;;;;;;;5015388;28;20465;-48
2023/04/21 05:23:19;;;;;;;49.43;25.77;;;;;;;;;;5015537;28;20746;-49
2023/04/21 05:25:45;;;;;;;53.10;27.87;;;;;;;;;;5012862;28;20480;-49
2023/04/21 05:28:11;;;;;;;51.73;29.83;;;;;;;;;;5014995;28;20924;-49
2023/04/21 05:30:37;;;;;;;52.73;27.47;;;;;;;;;;5015422;28;20409;-48
2023/04/21 05:33:03;;;;;;;53.33;26.13;;;;;;;;;;5015723;28;20406;-48
2023/04/21 05:35:32;;;;;;;56.70;27.80;;;;;;;;;;5013195;28;20429;-49
2023/04/21 05:37:58;;;;;;;61.53;27.80;;;;;;;;;;5014095;28;20523;-50
2023/04/21 05:40:24;;;;;;;52.13;27.90;;;;;;;;;;5014325;28;20845;-48
2023/04/21 05:42:50;;;;;;;55.90;29.47;;;;;;;;;;5009874;28;20923;-48
2023/04/21 05:45:16;;;;;;;49.57;26.50;;;;;;;;;;5013360;28;20423;-49
2023/04/21 05:47:42;;;;;;;52.10;28.30;;;;;;;;;;5014403;28;20440;-48
2023/04/21 05:50:09;;;;;;;68.20;30.00;;;;;;;;;;5014717;28;20409;-49
2023/04/21 05:52:36;;;;;;;60.67;27.13;;;;;;;;;;5007706;28;20418;-49
2023/04/21 05:55:02;;;;;;;56.37;28.67;;;;;;;;;;5014582;28;20780;-49
2023/04/21 05:57:28;;;;;;;56.90;29.77;;;;;;;;;;5014978;28;20910;-49
2023/04/21 05:59:54;;;;;;;59.03;28.93;;;;;;;;;;5002855;28;20434;-49
2023/04/21 06:02:20;;;;;;;51.77;29.60;;;;;;;;;;5014660;28;20884;-49
2023/04/21 06:04:46;;;;;;;53.53;27.30;;;;;;;;;;5014490;28;20407;-51
2023/04/21 06:07:12;;;;;;;48.77;28.70;;;;;;;;;;5013633;28;20508;-49
2023/04/21 06:09:38;;;;;;;48.43;28.07;;;;;;;;;;5008611;28;20481;-49
2023/04/21 06:12:04;;;;;;;54.77;27.20;;;;;;;;;;5015164;28;20908;-50
2023/04/21 06:14:31;;;;;;;47.67;25.40;;;;;;;;;;5014511;28;20788;-50
2023/04/21 06:16:57;;;;;;;51.90;28.30;;;;;;;;;;5014235;28;20431;-51
2023/04/21 06:19:23;;;;;;;48.27;27.77;;;;;;;;;;5014137;28;20925;-51
2023/04/21 06:21:49;;;;;;;46.00;24.97;;;;;;;;;;5014279;28;20837;-49
2023/04/21 06:24:15;;;;;;;53.30;28.47;;;;;;;;;;5014462;28;20438;-51
2023/04/21 06:26:41;;;;;;;48.43;26.00;;;;;;;;;;5014228;28;20493;-49
2023/04/21 06:29:07;;;;;;;49.37;27.17;;;;;;;;;;5014148;28;20416;-49
2023/04/21 06:31:33;;;;;;;50.40;27.73;;;;;;;;;;5014201;28;20411;-49
2023/04/21 06:33:59;;;;;;;47.00;26.17;;;;;;;;;;5014068;28;20419;-50
2023/04/21 06:36:26;;;;;;;65.67;31.10;;;;;;;;;;5012203;28;20409;-50
2023/04/21 06:38:52;;;;;;;44.50;25.60;;;;;;;;;;5011476;28;20941;-49
2023/04/21 06:41:18;;;;;;;54.07;28.00;;;;;;;;;;5014270;28;20969;-50
2023/04/21 06:43:44;;;;;;;46.70;27.23;;;;;;;;;;5013977;28;20407;-50
2023/04/21 06:46:10;;;;;;;43.00;25.80;;;;;;;;;;5014049;28;20902;-49
2023/04/21 06:48:36;;;;;;;51.03;26.07;;;;;;;;;;5013489;28;20428;-50
2023/04/21 06:51:02;;;;;;;45.87;28.87;;;;;;;;;;5013856;28;20407;-50
2023/04/21 06:53:28;;;;;;;45.80;26.07;;;;;;;;;;5013809;28;20783;-50
2023/04/21 06:55:54;;;;;;;42.90;26.50;;;;;;;;;;5013765;28;20404;-50
2023/04/21 06:58:20;;;;;;;45.33;25.87;;;;;;;;;;5013546;28;20482;-49
2023/04/21 07:00:46;;;;;;;46.90;27.33;;;;;;;;;;5013599;28;20415;-49
2023/04/21 07:03:12;;;;;;;43.50;26.03;;;;;;;;;;5013605;28;20407;-50
2023/04/21 07:05:38;;;;;;;51.57;29.03;;;;;;;;;;5012793;28;20883;-49
2023/04/21 07:08:04;;;;;;;46.00;27.33;;;;;;;;;;5013357;28;20922;-51
2023/04/21 07:10:30;;;;;;;45.13;27.77;;;;;;;;;;5012875;28;20810;-49
2023/04/21 07:12:56;;;;;;;41.80;25.77;;;;;;;;;;5013447;28;20435;-50
2023/04/21 07:15:22;;;;;;;42.50;25.30;;;;;;;;;;5013499;28;20890;-50
2023/04/21 07:17:48;;;;;;;45.73;26.33;;;;;;;;;;5012999;28;20452;-49
2023/04/21 07:20:16;;;;;;;44.93;26.13;;;;;;;;;;5013222;28;20414;-49
2023/04/21 07:22:42;;;;;;;49.17;27.10;;;;;;;;;;5013120;28;20459;-50
2023/04/21 07:25:08;;;;;;;51.27;28.07;;;;;;;;;;5013239;28;20414;-49
2023/04/21 07:27:37;;;;;;;44.43;25.70;;;;;;;;;;5013058;28;20456;-50
2023/04/21 07:30:06;;;;;;;43.43;24.03;;;;;;;;;;5012866;28;20413;-49
2023/04/21 07:32:33;;;;;;;42.60;25.10;;;;;;;;;;5013156;28;20973;-50
2023/04/21 07:35:00;;;;;;;41.13;25.57;;;;;;;;;;5013084;28;20406;-50
2023/04/21 07:37:26;;;;;;;39.87;24.10;;;;;;;;;;5012052;28;20539;-50
2023/04/21 07:39:52;;;;;;;38.00;24.57;;;;;;;;;;5012735;28;20506;-50
2023/04/21 07:42:18;;;;;;;40.03;24.30;;;;;;;;;;5012922;28;20460;-49
2023/04/21 07:44:44;;;;;;;38.60;24.40;;;;;;;;;;5012673;28;20416;-49
2023/04/21 07:47:10;;;;;;;38.10;23.60;;;;;;;;;;5012805;28;20423;-48
2023/04/21 07:49:36;;;;;;;36.17;23.20;;;;;;;;;;5012681;28;20411;-50
2023/04/21 07:52:02;;;;;;;39.47;24.13;;;;;;;;;;5012682;28;20948;-49
2023/04/21 07:54:28;;;;;;;41.20;25.10;;;;;;;;;;5012859;28;20411;-50
2023/04/21 07:56:54;;;;;;;42.30;24.60;;;;;;;;;;5012490;28;20479;-49
2023/04/21 07:59:20;;;;;;;36.83;23.47;;;;;;;;;;5012311;28;20416;-49
2023/04/21 08:01:46;;;;;;;35.90;23.60;;;;;;;;;;5012448;28;20474;-50
2023/04/21 08:04:12;;;;;;;39.20;22.97;;;;;;;;;;5012590;28;20414;-49
2023/04/21 08:06:38;;;;;;;33.33;21.83;;;;;;;;;;5011476;28;20428;-49
2023/04/21 08:09:04;;;;;;;44.63;25.63;;;;;;;;;;5012242;28;20416;-49
2023/04/21 08:11:29;;;;;;;40.60;26.20;;;;;;;;;;5012738;28;20411;-49
2023/04/21 08:13:56;;;;;;;38.70;23.37;;;;;;;;;;5012339;28;20411;-49
2023/04/21 08:16:22;;;;;;;44.33;25.10;;;;;;;;;;5012287;28;20781;-49
2023/04/21 08:18:48;;;;;;;43.63;27.40;;;;;;;;;;5011922;28;20435;-49
2023/04/21 08:21:14;;;;;;;45.10;25.67;;;;;;;;;;5012457;28;20488;-49
2023/04/21 08:23:40;;;;;;;42.07;24.93;;;;;;;;;;5012174;28;20427;-50
2023/04/21 08:26:06;;;;;;;38.10;24.03;;;;;;;;;;5012299;28;20891;-48
2023/04/21 08:28:32;;;;;;;37.70;25.17;;;;;;;;;;5011801;28;20442;-50
2023/04/21 08:31:00;;;;;;;38.00;23.90;;;;;;;;;;5012184;28;20772;-48
2023/04/21 08:33:26;;;;;;;38.90;24.47;;;;;;;;;;5007129;28;20427;-48
2023/04/21 08:35:52;;;;;;;42.73;25.60;;;;;;;;;;5010959;28;20923;-48
2023/04/21 08:38:18;;;;;;;47.30;25.37;;;;;;;;;;5010099;28;20459;-50
2023/04/21 08:40:44;;;;;;;40.27;23.83;;;;;;;;;;5011888;28;20416;-49
2023/04/21 08:43:11;;;;;;;33.00;23.27;;;;;;;;;;5011933;28;20413;-49
2023/04/21 08:45:38;;;;;;;32.37;22.00;;;;;;;;;;5011936;28;20416;-49
2023/04/21 08:48:05;;;;;;;40.73;24.17;;;;;;;;;;5011618;28;20425;-49
2023/04/21 08:50:31;;;;;;;42.77;24.27;;;;;;;;;;5011952;28;20398;-48
2023/04/21 08:52:57;;;;;;;37.20;24.27;;;;;;;;;;5011797;28;20416;-49
2023/04/21 08:55:28;;;;;;;42.37;24.67;;;;;;;;;;5011941;28;20423;-50
2023/04/21 08:57:54;;;;;;;38.57;23.73;;;;;;;;;;5011546;28;20783;-48
2023/04/21 09:00:20;;;;;;;35.07;22.63;;;;;;;;;;5011643;28;20419;-49
2023/04/21 09:02:56;;;;;;;40.57;24.70;;;;;;;;;;5011624;28;20562;-49
2023/04/21 09:05:26;;;;;;;34.93;23.80;;;;;;;;;;5010942;28;20438;-49
2023/04/21 09:08:12;;;;;;;38.17;23.90;;;;;;;;;;5010850;28;20441;-50
2023/04/21 09:10:45;;;;;;;30.40;21.93;;;;;;;;;;5011771;28;20408;-48
2023/04/21 09:13:11;;;;;;;37.07;23.00;;;;;;;;;;5007138;28;20859;-48
2023/04/21 09:15:40;;;;;;;38.70;23.40;;;;;;;;;;5011917;28;20491;-49
2023/04/21 09:18:12;;;;;;;41.17;25.40;;;;;;;;;;5010538;28;20448;-48
2023/04/21 09:20:38;;;;;;;40.07;24.83;;;;;;;;;;5010608;28;20426;-48
2023/04/21 09:23:05;;;;;;;40.67;24.53;;;;;;;;;;5005694;28;20428;-50
2023/04/21 09:25:31;;;;;;;36.57;22.40;;;;;;;;;;5011693;28;20909;-48
2023/04/21 09:27:59;;;;;;;36.97;23.23;;;;;;;;;;5011604;28;20484;-48
2023/04/21 09:30:25;;;;;;;37.87;23.57;;;;;;;;;;5011909;28;20420;-47
2023/04/21 09:32:55;;;;;;;38.17;23.33;;;;;;;;;;5011483;28;20904;-50
2023/04/21 09:35:21;;;;;;;36.23;24.07;;;;;;;;;;5011135;28;20960;-48
2023/04/21 09:37:47;;;;;;;42.90;23.30;;;;;;;;;;5011179;28;20806;-48
2023/04/21 09:40:14;;;;;;;35.57;22.67;;;;;;;;;;5010503;28;20421;-50
2023/04/21 09:42:40;;;;;;;37.73;22.70;;;;;;;;;;5011332;28;20502;-50
2023/04/21 09:45:08;;;;;;;36.07;23.93;;;;;;;;;;5011466;28;20421;-48
2023/04/21 09:47:38;;;;;;;33.07;23.63;;;;;;;;;;5011203;28;20426;-50
2023/04/21 09:50:06;;;;;;;35.00;23.50;;;;;;;;;;5005689;28;20428;-48
2023/04/21 09:52:32;;;;;;;39.67;23.80;;;;;;;;;;5015266;28;20821;-50
2023/04/21 09:55:03;;;;;;;36.47;22.20;;;;;;;;;;5015010;28;20763;-48
2023/04/21 09:57:30;;;;;;;31.37;21.13;;;;;;;;;;5010239;28;20424;-50
2023/04/21 10:00:00;;;;;;;33.00;22.77;;;;;;;;;;5014774;28;20823;-48
2023/04/21 10:02:30;;;;;;;35.53;23.33;;;;;;;;;;5015174;28;20465;-48
2023/04/21 10:04:56;;;;;;;32.10;21.23;;;;;;;;;;5014796;28;20415;-50
2023/04/21 10:07:22;;;;;;;38.10;23.03;;;;;;;;;;5013614;28;20948;-48
2023/04/21 10:09:55;;;;;;;38.43;22.90;;;;;;;;;;5014473;28;20408;-48
2023/04/21 10:12:21;;;;;;;33.33;21.63;;;;;;;;;;5014612;28;20411;-48
2023/04/21 10:14:52;;;;;;;32.77;22.17;;;;;;;;;;5014596;28;20772;-48
2023/04/21 10:17:18;;;;;;;31.57;20.30;;;;;;;;;;5014636;28;20456;-48
2023/04/21 10:19:56;;;;;;;33.27;20.00;;;;;;;;;;5014339;28;20448;-48
2023/04/21 10:22:32;;;;;;;30.47;19.97;;;;;;;;;;5014394;28;20507;-50
2023/04/21 10:24:59;;;;;;;34.57;22.27;;;;;;;;;;5014391;28;20417;-50
2023/04/21 10:27:35;;;;;;;48.77;22.67;;;;;;;;;;5014342;28;20935;-50
2023/04/21 10:30:01;;;;;;;38.13;22.57;;;;;;;;;;5014061;28;20410;-50
2023/04/21 10:32:44;;;;;;;35.53;23.70;;;;;;;;;;5014293;28;20460;-50
2023/04/21 10:35:15;;;;;;;33.90;22.13;;;;;;;;;;5007367;28;20446;-47
2023/04/21 10:37:43;;;;;;;33.57;22.87;;;;;;;;;;5013187;28;20449;-48
2023/04/21 10:40:27;;;;;;;35.70;21.90;;;;;;;;;;5013571;28;20621;-47
2023/04/21 10:42:54;;;;;;;34.70;22.47;;;;;;;;;;5014027;28;20522;-48
2023/04/21 10:45:20;;;;;;;35.80;22.97;;;;;;;;;;5014042;28;20465;-48
2023/04/21 10:47:50;;;;;;;30.50;21.13;;;;;;;;;;5013873;28;20430;-47
2023/04/21 10:50:24;;;;;;;34.80;22.13;;;;;;;;;;5013999;28;20415;-47
2023/04/21 10:52:53;;;;;;;30.87;20.60;;;;;;;;;;5013114;28;20938;-47
2023/04/21 10:55:20;;;;;;;30.33;21.03;;;;;;;;;;5014142;28;20414;-47
2023/04/21 10:57:46;;;;;;;39.03;22.77;;;;;;;;;;5013924;28;20437;-47
2023/04/21 11:00:16;;;;;;;33.27;21.60;;;;;;;;;;5013185;28;20418;-47
2023/04/21 11:02:43;;;;;;;34.40;21.77;;;;;;;;;;5013472;28;20458;-47
2023/04/21 11:05:10;;;;;;;35.67;22.97;;;;;;;;;;5013857;28;20898;-47
2023/04/21 11:07:36;;;;;;;34.27;21.00;;;;;;;;;;5013873;28;20423;-48
2023/04/21 11:10:06;;;;;;;33.50;20.43;;;;;;;;;;5013506;28;20780;-47
2023/04/21 11:12:37;;;;;;;31.87;19.67;;;;;;;;;;5014048;28;20475;-48
2023/04/21 11:15:06;;;;;;;34.60;19.83;;;;;;;;;;5013517;28;20430;-48
2023/04/21 11:17:32;;;;;;;30.47;20.70;;;;;;;;;;5057417;22;20485;-43
2023/04/21 11:19:58;;;;;;;28.10;19.60;;;;;;;;;;5027927;28;20450;-43
2023/04/21 11:22:25;;;;;;;25.30;18.10;;;;;;;;;;5032275;28;20555;-45
2023/04/21 11:24:53;;;;;;;29.60;19.10;;;;;;;;;;5032581;28;20440;-43
2023/04/21 11:27:21;;;;;;;27.93;19.00;;;;;;;;;;5033011;28;20452;-44
2023/04/21 11:29:47;;;;;;;25.47;16.93;;;;;;;;;;5021615;28;20411;-44
2023/04/21 11:32:13;;;;;;;25.70;17.33;;;;;;;;;;5022163;28;20763;-43
2023/04/21 11:34:39;;;;;;;24.60;18.60;;;;;;;;;;5020264;28;20398;-44
2023/04/21 11:37:09;;;;;;;27.90;18.63;;;;;;;;;;5012343;28;20423;-44
2023/04/21 11:39:35;;;;;;;22.87;17.43;;;;;;;;;;5009690;28;20443;-43
2023/04/21 11:42:01;;;;;;;27.27;18.47;;;;;;;;;;5022332;28;20953;-42
2023/04/21 11:44:35;;;;;;;25.40;18.33;;;;;;;;;;5021600;28;20380;-43
2023/04/21 11:47:11;;;;;;;25.87;19.30;;;;;;;;;;5023590;28;20435;-43
2023/04/21 11:49:43;;;;;;;25.93;19.30;;;;;;;;;;5017456;28;20379;-43
2023/04/21 11:52:09;;;;;;;29.47;16.90;;;;;;;;;;5019845;28;20908;-43
2023/04/21 11:54:35;;;;;;;28.10;19.07;;;;;;;;;;5004321;28;20413;-43
2023/04/21 11:57:01;;;;;;;26.23;19.23;;;;;;;;;;5026155;28;20407;-44
2023/04/21 11:59:28;;;;;;;31.30;18.67;;;;;;;;;;5021462;28;20377;-43
2023/04/21 12:01:54;;;;;;;25.90;19.00;;;;;;;;;;5014975;28;20434;-42
2023/04/21 12:04:21;;;;;;;27.17;18.90;;;;;;;;;;5016907;28;20391;-43
2023/04/21 12:06:54;;;;;;;24.97;18.40;;;;;;;;;;5017990;28;20443;-46
2023/04/21 12:09:20;;;;;;;28.20;22.40;;;;;;;;;;5011653;28;20407;-44
2023/04/21 12:11:48;;;;;;;28.07;20.47;;;;;;;;;;5008626;28;20390;-44
2023/04/21 12:14:15;;;;;;;27.40;19.10;;;;;;;;;;5009483;28;20438;-45
2023/04/21 12:16:41;;;;;;;30.27;19.03;;;;;;;;;;5015240;28;20917;-43
2023/04/21 12:19:07;;;;;;;24.50;18.50;;;;;;;;;;5011746;28;20416;-43
2023/04/21 12:21:33;;;;;;;27.50;20.00;;;;;;;;;;5009036;28;20419;-43
2023/04/21 12:23:59;;;;;;;27.43;19.93;;;;;;;;;;5018895;28;20404;-43
2023/04/21 12:26:25;;;;;;;30.80;19.10;;;;;;;;;;5020608;28;20392;-44
2023/04/21 12:28:51;;;;;;;27.37;19.20;;;;;;;;;;5019391;28;20415;-45
2023/04/21 12:31:18;;;;;;;26.03;18.90;;;;;;;;;;5017259;28;20417;-46
2023/04/21 12:33:44;;;;;;;25.07;17.13;;;;;;;;;;5015718;28;20413;-44
2023/04/21 12:36:10;;;;;;;23.30;17.80;;;;;;;;;;5008569;28;20791;-43
2023/04/21 12:38:36;;;;;;;23.57;18.30;;;;;;;;;;5022013;28;20421;-44
2023/04/21 12:41:02;;;;;;;30.40;17.80;;;;;;;;;;5017959;28;20462;-43
2023/04/21 12:43:29;;;;;;;23.80;16.80;;;;;;;;;;5017912;28;20404;-45
2023/04/21 12:45:55;;;;;;;23.80;17.83;;;;;;;;;;5021088;28;20419;-44
2023/04/21 12:48:21;;;;;;;22.30;15.50;;;;;;;;;;5015636;28;20524;-43
2023/04/21 12:50:47;;;;;;;20.63;14.90;;;;;;;;;;5014390;28;20418;-43
2023/04/21 12:53:13;;;;;;;24.33;15.27;;;;;;;;;;5024962;28;20417;-44
2023/04/21 12:55:39;;;;;;;16.23;13.73;;;;;;;;;;5020351;28;20436;-44
2023/04/21 12:58:05;;;;;;;23.40;15.73;;;;;;;;;;5018633;28;20433;-44
2023/04/21 13:00:34;;;;;;;21.50;15.87;;;;;;;;;;5012812;28;20419;-43
2023/04/21 13:03:00;;;;;;;19.27;15.47;;;;;;;;;;5016758;28;20461;-44
2023/04/21 13:05:26;;;;;;;21.93;15.10;;;;;;;;;;5014300;28;20409;-43
2023/04/21 13:07:53;;;;;;;18.73;14.57;;;;;;;;;;5020578;28;20430;-44
2023/04/21 13:10:19;;;;;;;20.07;15.40;;;;;;;;;;5020482;28;20960;-43
2023/04/21 13:12:45;;;;;;;20.10;15.07;;;;;;;;;;5022087;28;20440;-43
2023/04/21 13:15:11;;;;;;;23.20;16.43;;;;;;;;;;5012579;28;20453;-43
2023/04/21 13:17:37;;;;;;;30.77;22.40;;;;;;;;;;5008602;28;20442;-43
2023/04/21 13:20:03;;;;;;;17.87;14.10;;;;;;;;;;5011609;28;20407;-43
2023/04/21 13:22:29;;;;;;;17.60;13.93;;;;;;;;;;5010185;28;20622;-43
2023/04/21 13:24:55;;;;;;;16.43;13.60;;;;;;;;;;5013003;28;20517;-43
2023/04/21 13:27:21;;;;;;;16.27;14.10;;;;;;;;;;5011257;28;21019;-44
2023/04/21 13:29:48;;;;;;;17.30;12.60;;;;;;;;;;5015279;28;20730;-45
2023/04/21 13:32:14;;;;;;;18.63;14.40;;;;;;;;;;5003580;28;20400;-44
2023/04/21 13:34:40;;;;;;;17.00;13.50;;;;;;;;;;4995757;28;20785;-44
2023/04/21 13:37:09;;;;;;;21.67;15.30;;;;;;;;;;4995676;28;21042;-46
2023/04/21 13:39:35;;;;;;;19.90;13.97;;;;;;;;;;4995575;28;20409;-43
2023/04/21 13:42:01;;;;;;;19.70;14.50;;;;;;;;;;4995687;28;20441;-43
2023/04/21 13:44:27;;;;;;;17.33;13.63;;;;;;;;;;4995692;28;20461;-43
2023/04/21 13:46:54;;;;;;;20.60;13.37;;;;;;;;;;4995650;28;20414;-44
2023/04/21 13:49:20;;;;;;;20.10;16.30;;;;;;;;;;4995114;28;20440;-43
2023/04/21 13:51:46;;;;;;;23.43;15.57;;;;;;;;;;4995762;28;20796;-43
2023/04/21 13:54:12;;;;;;;17.67;14.07;;;;;;;;;;5004134;28;20431;-43
2023/04/21 13:56:38;;;;;;;19.23;14.60;;;;;;;;;;5008478;28;20454;-44
2023/04/21 13:59:05;;;;;;;21.70;15.07;;;;;;;;;;5012086;28;20423;-43
2023/04/21 14:01:31;;;;;;;21.10;15.47;;;;;;;;;;4995515;28;20455;-44
2023/04/21 14:03:57;;;;;;;17.90;14.40;;;;;;;;;;4995196;28;20416;-44
2023/04/21 14:06:23;;;;;;;19.80;14.63;;;;;;;;;;4995587;28;20465;-44
2023/04/21 14:08:49;;;;;;;15.97;12.83;;;;;;;;;;4995003;28;20432;-44
2023/04/21 14:11:15;;;;;;;16.70;13.17;;;;;;;;;;4995198;28;20416;-44
2023/04/21 14:13:41;;;;;;;15.33;13.33;;;;;;;;;;5006550;28;20418;-47